Time;durP1;ratioP1;P1;durP2;ratioP2;P2;SDS_P1;SDS_P2;PMS_P1;PMS_P2;Temp;Humidity;BMP_temperature;BMP_pressure;BME280_temperature;BME280_humidity;BME280_pressure;Samples;Min_cycle;Max_cycle;Signal;HPM_P1;HPM_P2
2022/11/09 00:01:37;;;;;;;4.97;1.60;;;14.20;75.40;;;;;;5028831;28;20113;-74
2022/11/09 00:04:06;;;;;;;6.20;1.70;;;14.20;75.50;;;;;;5026444;28;20046;-74
2022/11/09 00:06:35;;;;;;;6.65;2.00;;;14.20;75.50;;;;;;5028608;28;20054;-73
2022/11/09 00:09:04;;;;;;;6.50;2.00;;;14.20;75.60;;;;;;5027900;28;20132;-73
2022/11/09 00:11:31;;;;;;;7.85;1.80;;;14.20;75.70;;;;;;5045031;28;20258;-73
2022/11/09 00:13:58;;;;;;;6.03;1.75;;;14.20;75.70;;;;;;5027913;28;20057;-74
2022/11/09 00:16:25;;;;;;;7.05;1.83;;;14.20;75.70;;;;;;5028678;28;20057;-74
2022/11/09 00:18:52;;;;;;;4.90;1.75;;;14.10;75.70;;;;;;5028206;28;20496;-73
2022/11/09 00:21:22;;;;;;;6.70;1.87;;;14.20;75.70;;;;;;5026482;28;21024;-74
2022/11/09 00:23:49;;;;;;;6.70;1.83;;;14.20;75.70;;;;;;5027761;28;20273;-73
2022/11/09 00:26:18;;;;;;;6.70;2.13;;;14.20;75.80;;;;;;5029836;28;20365;-73
2022/11/09 00:28:45;;;;;;;7.20;1.80;;;14.20;75.70;;;;;;5011564;28;20050;-73
2022/11/09 00:31:14;;;;;;;4.80;1.85;;;14.20;75.70;;;;;;5011142;28;20077;-74
2022/11/09 00:33:41;;;;;;;4.73;1.70;;;14.20;75.80;;;;;;5011518;28;20148;-73
2022/11/09 00:36:10;;;;;;;4.35;1.52;;;14.20;75.70;;;;;;5011335;28;20372;-73
2022/11/09 00:38:40;;;;;;;7.18;1.73;;;14.10;75.80;;;;;;5028050;28;20046;-74
2022/11/09 00:41:09;;;;;;;5.63;1.60;;;14.10;75.80;;;;;;5014973;28;20095;-73
2022/11/09 00:43:36;;;;;;;4.95;1.88;;;14.10;75.80;;;;;;5031415;28;20141;-73
2022/11/09 00:46:03;;;;;;;7.23;1.97;;;14.20;75.80;;;;;;5014701;28;20046;-74
2022/11/09 00:48:30;;;;;;;5.60;1.55;;;14.10;75.80;;;;;;5031261;28;20385;-74
2022/11/09 00:50:58;;;;;;;6.63;1.88;;;14.10;75.80;;;;;;5031274;28;20517;-73
2022/11/09 00:53:26;;;;;;;6.55;1.90;;;14.10;75.80;;;;;;5031747;28;20149;-73
2022/11/09 00:55:59;;;;;;;6.28;1.70;;;14.10;75.90;;;;;;5029595;28;20069;-74
2022/11/09 00:58:28;;;;;;;9.63;1.93;;;14.10;75.90;;;;;;5014822;28;20172;-73
2022/11/09 01:00:56;;;;;;;7.85;1.75;;;14.10;75.90;;;;;;5030936;28;20265;-73
2022/11/09 01:03:25;;;;;;;4.45;1.52;;;14.10;76.00;;;;;;5030972;28;20050;-74
2022/11/09 01:05:52;;;;;;;7.03;2.00;;;14.10;76.00;;;;;;5015098;28;20482;-73
2022/11/09 01:08:19;;;;;;;5.68;1.42;;;14.10;76.00;;;;;;5030937;28;20048;-74
2022/11/09 01:10:48;;;;;;;6.57;1.70;;;14.10;76.10;;;;;;5030912;28;20116;-73
2022/11/09 01:13:18;;;;;;;6.97;2.03;;;14.10;76.10;;;;;;5032243;28;20279;-74
2022/11/09 01:15:47;;;;;;;5.85;1.95;;;14.10;76.10;;;;;;5030725;28;20050;-73
2022/11/09 01:18:14;;;;;;;6.28;1.75;;;14.10;76.00;;;;;;5030967;28;20532;-74
2022/11/09 01:20:43;;;;;;;6.03;1.90;;;14.10;76.00;;;;;;5031099;28;20045;-73
2022/11/09 01:23:11;;;;;;;6.93;1.50;;;14.00;76.00;;;;;;5014337;28;20081;-73
2022/11/09 01:25:38;;;;;;;4.75;1.60;;;14.00;76.00;;;;;;5014418;28;20281;-74
2022/11/09 01:28:06;;;;;;;6.78;1.80;;;14.00;75.90;;;;;;5032352;28;20831;-74
2022/11/09 01:30:37;;;;;;;7.22;1.60;;;14.00;75.90;;;;;;5029815;28;20082;-74
2022/11/09 01:33:09;;;;;;;5.47;1.90;;;14.00;76.00;;;;;;5030885;28;20528;-74
2022/11/09 01:35:37;;;;;;;7.40;2.10;;;14.00;76.10;;;;;;5030723;28;20061;-74
2022/11/09 01:38:06;;;;;;;8.20;1.70;;;14.00;76.10;;;;;;5013741;28;20265;-73
2022/11/09 01:40:35;;;;;;;7.50;1.60;;;14.00;76.10;;;;;;5029844;28;20054;-74
2022/11/09 01:43:07;;;;;;;7.13;1.80;;;14.00;76.20;;;;;;5030969;28;20152;-74
2022/11/09 01:45:35;;;;;;;5.95;1.70;;;13.90;76.20;;;;;;5014465;28;20838;-73
2022/11/09 01:48:06;;;;;;;4.93;1.80;;;13.90;76.20;;;;;;5029454;28;20571;-74
2022/11/09 01:50:40;;;;;;;7.10;1.83;;;13.90;76.20;;;;;;5012617;28;20252;-74
2022/11/09 01:53:14;;;;;;;6.53;1.80;;;13.90;76.30;;;;;;5030375;28;20050;-74
2022/11/09 01:55:42;;;;;;;5.70;1.80;;;13.90;76.30;;;;;;5030724;28;20509;-74
2022/11/09 01:58:14;;;;;;;5.90;1.88;;;13.90;76.30;;;;;;5030440;28;20136;-73
2022/11/09 02:00:45;;;;;;;7.83;2.00;;;13.90;76.50;;;;;;5030135;28;21029;-73
2022/11/09 02:03:18;;;;;;;5.82;2.08;;;13.90;76.50;;;;;;5030200;28;20285;-73
2022/11/09 02:05:46;;;;;;;5.45;1.63;;;13.90;76.50;;;;;;5012932;28;20092;-74
2022/11/09 02:08:17;;;;;;;6.07;1.67;;;13.80;76.60;;;;;;5013566;28;20562;-74
2022/11/09 02:10:52;;;;;;;7.28;1.40;;;13.80;76.60;;;;;;5030257;28;20050;-74
2022/11/09 02:13:24;;;;;;;6.07;1.53;;;13.80;76.60;;;;;;5030402;28;20046;-73
2022/11/09 02:15:52;;;;;;;4.53;1.40;;;13.70;76.70;;;;;;5030107;28;20262;-74
2022/11/09 02:18:20;;;;;;;8.30;1.90;;;13.70;76.70;;;;;;5013284;28;20046;-74
2022/11/09 02:20:51;;;;;;;8.38;1.80;;;13.70;76.70;;;;;;5028700;28;20096;-73
2022/11/09 02:23:18;;;;;;;5.40;1.30;;;13.70;76.70;;;;;;5010308;28;20137;-73
2022/11/09 02:25:49;;;;;;;6.10;1.60;;;13.70;76.70;;;;;;5011728;28;20065;-74
2022/11/09 02:28:17;;;;;;;7.57;1.95;;;13.70;76.70;;;;;;5026824;28;20250;-74
2022/11/09 02:30:49;;;;;;;5.85;1.42;;;13.70;76.60;;;;;;5043993;28;20050;-73
2022/11/09 02:33:16;;;;;;;8.95;1.52;;;13.70;76.70;;;;;;5013224;28;20082;-73
2022/11/09 02:35:44;;;;;;;5.93;1.38;;;13.70;76.70;;;;;;5028581;28;20058;-73
2022/11/09 02:38:14;;;;;;;9.03;1.90;;;13.60;76.70;;;;;;5012941;28;20654;-73
2022/11/09 02:40:45;;;;;;;7.97;1.70;;;13.60;76.60;;;;;;5029794;28;20264;-73
2022/11/09 02:43:14;;;;;;;5.35;1.50;;;13.60;76.60;;;;;;5012991;28;20050;-74
2022/11/09 02:45:41;;;;;;;7.20;1.70;;;13.60;76.50;;;;;;5013341;28;20045;-73
2022/11/09 02:48:08;;;;;;;6.28;1.60;;;13.60;76.60;;;;;;5029530;28;20042;-73
2022/11/09 02:50:37;;;;;;;7.87;1.60;;;13.50;76.60;;;;;;5012453;28;20138;-74
2022/11/09 02:53:05;;;;;;;10.30;1.65;;;13.60;76.60;;;;;;5029761;28;20261;-73
2022/11/09 02:55:37;;;;;;;8.02;1.60;;;13.50;76.60;;;;;;5011616;28;20056;-73
2022/11/09 02:58:04;;;;;;;5.07;1.40;;;13.50;76.70;;;;;;5046080;28;20156;-73
2022/11/09 03:00:31;;;;;;;6.82;1.95;;;13.50;76.60;;;;;;5028744;28;20543;-74
2022/11/09 03:02:58;;;;;;;7.50;1.50;;;13.50;76.70;;;;;;5029202;28;20057;-74
2022/11/09 03:05:26;;;;;;;7.85;1.58;;;13.50;76.60;;;;;;5012554;28;20269;-74
2022/11/09 03:07:53;;;;;;;8.00;1.70;;;13.50;76.60;;;;;;5012708;28;20065;-73
2022/11/09 03:10:21;;;;;;;8.00;1.65;;;13.50;76.50;;;;;;5012329;28;22042;-74
2022/11/09 03:12:50;;;;;;;5.68;1.30;;;13.50;76.40;;;;;;5011579;28;20054;-74
2022/11/09 03:15:18;;;;;;;5.90;1.50;;;13.50;76.50;;;;;;5012806;28;20054;-74
2022/11/09 03:17:46;;;;;;;7.70;1.58;;;13.40;76.50;;;;;;5029761;28;20254;-74
2022/11/09 03:20:14;;;;;;;6.60;1.50;;;13.40;76.40;;;;;;5029092;28;20136;-73
2022/11/09 03:22:42;;;;;;;7.50;1.35;;;13.40;76.30;;;;;;5012364;28;20141;-73
2022/11/09 03:25:10;;;;;;;7.03;1.40;;;13.40;76.20;;;;;;5028779;28;20260;-73
2022/11/09 03:27:37;;;;;;;9.07;1.80;;;13.30;76.20;;;;;;5029343;28;20120;-73
2022/11/09 03:30:07;;;;;;;6.68;1.50;;;13.30;76.20;;;;;;5011002;28;20740;-73
2022/11/09 03:32:34;;;;;;;7.05;1.40;;;13.30;76.30;;;;;;5012560;28;20050;-73
2022/11/09 03:35:02;;;;;;;6.90;1.50;;;13.30;76.40;;;;;;5012145;28;20461;-74
2022/11/09 03:37:29;;;;;;;7.65;1.35;;;13.30;76.40;;;;;;5028134;28;20060;-74
2022/11/09 03:39:56;;;;;;;7.60;1.67;;;13.30;76.40;;;;;;5028448;28;20121;-74
2022/11/09 03:42:22;;;;;;;6.22;1.30;;;13.30;76.50;;;;;;5030280;28;20285;-74
2022/11/09 03:44:50;;;;;;;9.45;1.30;;;13.20;76.60;;;;;;5028963;28;20512;-73
2022/11/09 03:47:18;;;;;;;7.35;1.15;;;13.20;76.70;;;;;;5027426;28;20045;-74
2022/11/09 03:49:45;;;;;;;7.10;1.52;;;13.20;76.70;;;;;;5061887;28;20049;-74
2022/11/09 03:52:12;;;;;;;5.90;1.50;;;13.20;76.70;;;;;;5028346;28;20083;-73
2022/11/09 03:54:39;;;;;;;7.03;1.45;;;13.10;76.80;;;;;;5029015;28;20344;-74
2022/11/09 03:57:05;;;;;;;6.75;1.40;;;13.10;76.80;;;;;;5029528;28;20176;-73
2022/11/09 03:59:32;;;;;;;8.43;1.70;;;13.10;77.00;;;;;;5028217;28;20072;-74
2022/11/09 04:01:59;;;;;;;6.88;1.58;;;13.10;77.10;;;;;;5028672;28;20054;-74
2022/11/09 04:04:28;;;;;;;9.23;1.40;;;13.10;77.10;;;;;;5028533;28;20051;-73
2022/11/09 04:06:55;;;;;;;9.95;1.70;;;13.10;77.20;;;;;;5029773;28;20250;-73
2022/11/09 04:09:22;;;;;;;7.03;1.40;;;13.10;77.30;;;;;;5028186;28;20050;-74
2022/11/09 04:11:48;;;;;;;5.45;1.27;;;13.10;77.30;;;;;;5028217;28;20092;-73
2022/11/09 04:14:15;;;;;;;5.97;1.55;;;13.10;77.40;;;;;;5029054;28;20053;-74
2022/11/09 04:16:42;;;;;;;8.90;1.70;;;13.10;77.40;;;;;;5029692;28;20081;-74
2022/11/09 04:19:09;;;;;;;9.10;1.80;;;13.10;77.50;;;;;;5029172;28;20775;-74
2022/11/09 04:21:37;;;;;;;5.90;1.52;;;13.10;77.50;;;;;;5026962;28;20057;-74
2022/11/09 04:24:05;;;;;;;5.78;1.60;;;13.10;77.50;;;;;;5011863;28;20454;-73
2022/11/09 04:26:31;;;;;;;7.05;1.40;;;13.10;77.60;;;;;;5028105;28;20129;-73
2022/11/09 04:28:58;;;;;;;6.70;1.70;;;13.10;77.70;;;;;;5029125;28;20516;-74
2022/11/09 04:31:25;;;;;;;4.85;1.50;;;13.10;77.80;;;;;;5027790;28;20384;-74
2022/11/09 04:33:52;;;;;;;5.57;1.38;;;13.10;77.80;;;;;;5029744;28;20056;-74
2022/11/09 04:36:19;;;;;;;7.50;1.73;;;13.10;77.80;;;;;;5028016;28;20053;-74
2022/11/09 04:38:47;;;;;;;7.13;1.58;;;13.10;77.80;;;;;;5028283;28;20050;-74
2022/11/09 04:41:14;;;;;;;6.10;1.60;;;13.10;77.90;;;;;;5028325;28;20050;-74
2022/11/09 04:43:42;;;;;;;6.90;1.38;;;13.10;78.00;;;;;;5029170;28;20340;-73
2022/11/09 04:46:08;;;;;;;5.97;1.30;;;13.10;78.10;;;;;;5029444;28;20064;-73
2022/11/09 04:48:35;;;;;;;4.57;1.13;;;13.10;78.10;;;;;;5027827;28;20050;-74
2022/11/09 04:51:05;;;;;;;5.80;1.80;;;13.10;78.20;;;;;;5029316;28;20068;-74
2022/11/09 04:53:33;;;;;;;7.27;1.50;;;13.10;78.20;;;;;;5037051;28;20052;-74
2022/11/09 04:56:01;;;;;;;6.50;1.63;;;13.10;78.30;;;;;;5031755;28;20284;-74
2022/11/09 04:58:28;;;;;;;5.80;1.55;;;13.10;78.40;;;;;;5061255;28;20050;-74
2022/11/09 05:01:02;;;;;;;5.82;1.42;;;13.10;78.50;;;;;;5028878;28;20053;-73
2022/11/09 05:03:29;;;;;;;6.95;1.65;;;13.10;78.60;;;;;;5026573;28;20064;-74
2022/11/09 05:05:56;;;;;;;7.10;1.37;;;13.10;78.70;;;;;;5029110;28;20508;-74
2022/11/09 05:08:23;;;;;;;6.90;1.70;;;13.10;78.80;;;;;;5026165;28;21296;-74
2022/11/09 05:10:50;;;;;;;5.03;1.60;;;13.10;78.90;;;;;;5025448;28;20058;-74
2022/11/09 05:13:18;;;;;;;5.82;1.40;;;13.10;79.00;;;;;;5024855;28;20794;-74
2022/11/09 05:15:45;;;;;;;10.38;2.28;;;13.10;79.00;;;;;;5026049;28;20046;-74
2022/11/09 05:18:12;;;;;;;6.00;1.73;;;13.10;79.10;;;;;;5025716;28;20499;-74
2022/11/09 05:20:39;;;;;;;6.07;1.80;;;13.10;79.00;;;;;;5025820;28;20364;-74
2022/11/09 05:25:50;;;;;;;7.78;1.83;;;13.10;79.10;;;;;;5029706;28;20085;-74
2022/11/09 05:28:18;;;;;;;6.15;1.45;;;13.10;79.10;;;;;;5031432;28;20137;-74
2022/11/09 05:30:45;;;;;;;7.70;1.90;;;13.10;79.10;;;;;;5031755;28;20053;-74
2022/11/09 05:33:13;;;;;;;7.68;1.73;;;13.10;79.00;;;;;;5063952;28;20260;-74
2022/11/09 05:35:40;;;;;;;8.73;1.58;;;13.10;78.90;;;;;;5030570;28;20060;-74
2022/11/09 05:38:06;;;;;;;7.22;1.60;;;13.10;78.90;;;;;;5031494;28;20054;-74
2022/11/09 05:40:34;;;;;;;6.00;1.52;;;13.10;78.80;;;;;;5030384;28;20060;-74
2022/11/09 05:43:01;;;;;;;6.00;1.37;;;13.10;78.70;;;;;;5030686;28;20103;-73
2022/11/09 05:45:29;;;;;;;5.38;1.20;;;13.10;78.80;;;;;;5030983;28;20328;-74
2022/11/09 05:47:56;;;;;;;9.65;2.05;;;13.10;78.70;;;;;;5031939;28;20053;-73
2022/11/09 05:50:23;;;;;;;4.57;1.38;;;13.00;78.70;;;;;;5031363;28;20161;-73
2022/11/09 05:53:01;;;;;;;6.93;1.42;;;13.10;78.70;;;;;;5027057;28;20726;-74
2022/11/09 05:55:28;;;;;;;6.23;1.17;;;13.00;78.70;;;;;;5030316;28;20530;-74
2022/11/09 05:57:55;;;;;;;8.60;1.88;;;13.00;78.80;;;;;;5032014;28;20249;-74
2022/11/09 06:00:22;;;;;;;8.05;1.70;;;13.00;78.70;;;;;;5029969;28;20046;-73
2022/11/09 06:02:50;;;;;;;7.85;1.83;;;13.00;78.80;;;;;;5028777;28;20064;-74
2022/11/09 06:05:19;;;;;;;6.70;1.33;;;13.00;78.90;;;;;;5013274;28;20060;-73
2022/11/09 06:07:46;;;;;;;8.57;1.40;;;13.00;78.80;;;;;;5030404;28;20193;-73
2022/11/09 06:10:12;;;;;;;7.95;2.00;;;12.90;78.90;;;;;;5031560;28;20317;-74
2022/11/09 06:12:39;;;;;;;6.78;1.50;;;12.90;78.90;;;;;;5030538;28;20050;-73
2022/11/09 06:15:07;;;;;;;9.38;1.30;;;12.90;79.00;;;;;;5063383;28;20042;-73
2022/11/09 06:17:34;;;;;;;6.07;1.60;;;12.90;78.90;;;;;;5030240;28;20041;-74
2022/11/09 06:20:03;;;;;;;8.00;1.33;;;12.80;79.00;;;;;;5028679;28;20057;-74
2022/11/09 06:22:30;;;;;;;6.80;1.23;;;12.80;78.90;;;;;;5063346;28;20320;-74
2022/11/09 06:24:57;;;;;;;8.35;1.60;;;12.80;78.90;;;;;;5030837;28;20054;-74
2022/11/09 06:27:23;;;;;;;8.15;1.33;;;12.80;78.90;;;;;;5029716;28;20118;-73
2022/11/09 06:29:50;;;;;;;10.27;1.80;;;12.80;78.90;;;;;;5032701;28;21013;-73
2022/11/09 06:32:17;;;;;;;6.53;1.40;;;12.80;79.00;;;;;;5040805;28;20053;-74
2022/11/09 06:34:47;;;;;;;7.25;1.30;;;12.70;79.00;;;;;;5036561;28;20336;-74
2022/11/09 06:37:16;;;;;;;8.32;1.60;;;12.70;78.90;;;;;;5036466;28;20576;-73
2022/11/09 06:39:44;;;;;;;7.78;1.33;;;12.70;78.90;;;;;;5060975;28;20054;-73
2022/11/09 06:42:11;;;;;;;5.97;1.17;;;12.70;78.90;;;;;;5030892;28;20050;-73
2022/11/09 06:44:38;;;;;;;5.27;1.00;;;12.70;78.80;;;;;;5027801;28;20561;-73
2022/11/09 06:47:05;;;;;;;7.85;1.13;;;12.70;78.70;;;;;;5027009;28;20264;-74
2022/11/09 06:49:32;;;;;;;6.63;1.27;;;12.70;78.70;;;;;;5027301;28;20145;-74
2022/11/09 06:51:59;;;;;;;5.60;1.10;;;12.70;78.70;;;;;;5028342;28;20500;-74
2022/11/09 06:54:27;;;;;;;9.70;1.50;;;12.70;78.70;;;;;;5028520;28;20112;-74
2022/11/09 06:56:54;;;;;;;11.33;1.83;;;12.70;78.60;;;;;;5029645;28;20054;-73
2022/11/09 06:59:21;;;;;;;7.97;1.13;;;12.70;78.60;;;;;;5028426;28;20272;-73
2022/11/09 07:01:51;;;;;;;6.68;1.10;;;12.70;78.60;;;;;;5033582;28;20045;-73
2022/11/09 07:04:18;;;;;;;8.43;1.33;;;12.60;78.60;;;;;;5029052;28;20054;-73
2022/11/09 07:06:46;;;;;;;9.23;1.50;;;12.60;78.70;;;;;;5029368;28;20144;-73
2022/11/09 07:09:13;;;;;;;7.97;1.30;;;12.60;78.70;;;;;;5028685;28;21051;-72
2022/11/09 07:11:41;;;;;;;9.73;1.63;;;12.60;78.70;;;;;;5033877;28;20691;-73
2022/11/09 07:14:08;;;;;;;10.38;1.20;;;12.50;78.80;;;;;;5028622;28;20064;-74
2022/11/09 07:16:36;;;;;;;8.60;1.58;;;12.50;78.90;;;;;;5029496;28;20129;-74
2022/11/09 07:19:03;;;;;;;6.88;1.25;;;12.50;79.00;;;;;;5028986;28;20058;-74
2022/11/09 07:21:30;;;;;;;7.43;1.20;;;12.50;79.00;;;;;;5029011;28;20061;-73
2022/11/09 07:23:57;;;;;;;5.93;1.25;;;12.50;79.00;;;;;;5028107;28;20261;-74
2022/11/09 07:26:23;;;;;;;8.50;1.75;;;12.50;79.10;;;;;;5028388;28;20125;-74
2022/11/09 07:28:52;;;;;;;6.63;1.52;;;12.50;79.30;;;;;;5027376;28;20046;-73
2022/11/09 07:31:19;;;;;;;9.02;1.80;;;12.50;79.20;;;;;;5028650;28;20137;-73
2022/11/09 07:33:46;;;;;;;9.47;1.47;;;12.50;79.20;;;;;;5026980;28;20054;-74
2022/11/09 07:36:13;;;;;;;7.95;1.50;;;12.50;79.30;;;;;;5027458;28;20827;-74
2022/11/09 07:38:39;;;;;;;8.32;1.40;;;12.50;79.30;;;;;;5026739;28;20149;-74
2022/11/09 07:41:06;;;;;;;7.10;1.50;;;12.50;79.50;;;;;;5026389;28;20061;-73
2022/11/09 07:43:33;;;;;;;7.93;1.40;;;12.50;79.50;;;;;;5032064;28;20054;-74
2022/11/09 07:46:05;;;;;;;7.13;1.33;;;12.50;79.60;;;;;;5029578;28;20060;-73
2022/11/09 07:48:32;;;;;;;8.98;1.95;;;12.50;79.50;;;;;;5027010;28;20969;-73
2022/11/09 07:51:01;;;;;;;8.02;1.63;;;12.50;79.60;;;;;;5026796;28;20065;-73
2022/11/09 07:53:28;;;;;;;7.80;1.30;;;12.50;79.50;;;;;;5027513;28;20173;-73
2022/11/09 07:56:01;;;;;;;10.43;1.70;;;12.50;79.60;;;;;;5029845;28;20631;-73
2022/11/09 07:58:28;;;;;;;8.80;1.53;;;12.50;79.70;;;;;;5034571;28;20056;-73
2022/11/09 08:00:55;;;;;;;7.45;1.65;;;12.50;79.70;;;;;;5026494;28;20261;-73
2022/11/09 08:03:24;;;;;;;10.32;1.67;;;12.50;79.70;;;;;;5028790;28;20056;-74
2022/11/09 08:05:52;;;;;;;9.32;1.92;;;12.50;79.70;;;;;;5061215;28;20050;-73
2022/11/09 08:08:19;;;;;;;7.97;1.50;;;12.50;79.70;;;;;;5029109;28;20683;-73
2022/11/09 08:10:50;;;;;;;9.10;1.70;;;12.50;79.70;;;;;;5027741;28;20703;-74
2022/11/09 08:13:17;;;;;;;8.73;1.83;;;12.50;79.70;;;;;;5028862;28;20272;-74
2022/11/09 08:15:44;;;;;;;8.98;1.75;;;12.50;79.90;;;;;;5027261;28;20117;-74
2022/11/09 08:18:14;;;;;;;10.73;2.08;;;12.50;79.80;;;;;;5029025;28;20145;-73
2022/11/09 08:20:42;;;;;;;9.35;1.80;;;12.50;79.90;;;;;;5057103;28;20060;-74
2022/11/09 08:23:11;;;;;;;9.40;1.70;;;12.50;79.90;;;;;;5033986;28;20054;-73
2022/11/09 08:25:38;;;;;;;9.80;2.05;;;12.50;80.00;;;;;;5059487;28;20261;-74
2022/11/09 08:28:05;;;;;;;10.07;1.80;;;12.50;80.00;;;;;;5026500;28;20056;-74
2022/11/09 08:30:33;;;;;;;10.70;2.08;;;12.50;80.10;;;;;;5025927;28;20124;-73
2022/11/09 08:33:01;;;;;;;9.55;2.00;;;12.50;80.10;;;;;;5058328;28;20046;-73
2022/11/09 08:35:29;;;;;;;12.40;2.30;;;12.50;80.20;;;;;;5028136;28;20876;-74
2022/11/09 08:38:01;;;;;;;9.63;1.80;;;12.60;80.10;;;;;;5043157;28;20714;-74
2022/11/09 08:40:28;;;;;;;8.93;2.05;;;12.60;80.10;;;;;;5025587;28;21019;-74
2022/11/09 08:42:55;;;;;;;11.02;1.90;;;12.70;80.10;;;;;;5025988;28;20058;-74
2022/11/09 08:45:22;;;;;;;10.13;2.17;;;12.70;80.10;;;;;;5027644;28;20045;-74
2022/11/09 08:47:56;;;;;;;10.33;2.03;;;12.70;80.10;;;;;;5027213;28;20109;-74
2022/11/09 08:50:23;;;;;;;8.98;2.33;;;12.70;80.10;;;;;;5007536;28;20257;-74
2022/11/09 08:52:50;;;;;;;8.27;1.60;;;12.80;80.00;;;;;;5026134;28;20104;-73
2022/11/09 08:55:19;;;;;;;10.02;2.40;;;12.80;79.90;;;;;;5026325;28;20057;-74
2022/11/09 08:57:46;;;;;;;9.13;2.22;;;12.80;79.90;;;;;;5025017;28;20050;-74
2022/11/09 09:00:14;;;;;;;8.33;1.50;;;12.80;79.80;;;;;;5030560;28;20476;-74
2022/11/09 09:02:41;;;;;;;10.05;2.35;;;12.90;79.90;;;;;;5030988;28;20743;-73
2022/11/09 09:05:08;;;;;;;9.95;1.95;;;12.90;79.80;;;;;;5030650;28;20057;-73
2022/11/09 09:07:35;;;;;;;10.25;2.03;;;12.90;79.90;;;;;;5029280;28;20133;-73
2022/11/09 09:10:02;;;;;;;7.60;1.80;;;12.90;79.80;;;;;;5029534;28;20077;-73
2022/11/09 09:12:31;;;;;;;11.23;2.13;;;13.00;79.80;;;;;;5031783;28;20128;-73
2022/11/09 09:14:58;;;;;;;12.65;2.05;;;13.00;79.70;;;;;;5042698;28;20272;-74
2022/11/09 09:17:25;;;;;;;10.10;2.08;;;13.10;79.60;;;;;;5035563;28;20560;-74
2022/11/09 09:19:52;;;;;;;11.55;2.45;;;13.10;79.40;;;;;;5045883;28;20104;-74
2022/11/09 09:22:19;;;;;;;9.73;2.35;;;13.10;79.50;;;;;;5031477;28;20054;-73
2022/11/09 09:24:47;;;;;;;9.07;1.90;;;13.10;79.10;;;;;;5030979;28;20076;-74
2022/11/09 09:27:14;;;;;;;11.23;2.40;;;13.20;79.20;;;;;;5032163;28;20777;-74
2022/11/09 09:29:42;;;;;;;11.07;2.30;;;13.20;79.10;;;;;;5030900;28;20064;-74
2022/11/09 09:32:09;;;;;;;9.65;2.25;;;13.30;78.80;;;;;;5029175;28;20052;-74
2022/11/09 09:34:36;;;;;;;10.10;2.25;;;13.30;79.00;;;;;;5064070;28;20516;-74
2022/11/09 09:37:03;;;;;;;11.30;2.20;;;13.30;79.00;;;;;;5031674;28;20164;-73
2022/11/09 09:39:30;;;;;;;9.70;2.30;;;13.30;79.00;;;;;;5029912;28;20246;-74
2022/11/09 09:42:00;;;;;;;8.07;2.30;;;13.30;79.00;;;;;;5030067;28;20050;-73
2022/11/09 09:44:33;;;;;;;12.30;2.30;;;13.30;78.80;;;;;;5029583;28;20571;-73
2022/11/09 09:47:08;;;;;;;11.13;2.65;;;13.30;78.80;;;;;;5030481;28;20058;-73
2022/11/09 09:49:39;;;;;;;8.90;2.40;;;13.30;79.00;;;;;;5028682;28;20512;-73
2022/11/09 09:52:24;;;;;;;9.90;2.20;;;13.30;78.90;;;;;;5046498;28;20713;-73
2022/11/09 09:54:56;;;;;;;12.52;2.47;;;13.50;78.50;;;;;;5027506;28;20061;-73
2022/11/09 09:57:27;;;;;;;8.50;2.28;;;13.50;78.20;;;;;;5012585;28;20054;-73
2022/11/09 09:59:58;;;;;;;10.27;1.80;;;13.50;78.00;;;;;;5027965;28;20448;-74
2022/11/09 10:02:28;;;;;;;7.77;2.53;;;13.50;78.00;;;;;;5037667;28;20622;-73
2022/11/09 10:04:57;;;;;;;9.63;2.30;;;13.50;78.00;;;;;;5032492;28;20257;-72
2022/11/09 10:07:29;;;;;;;8.55;2.10;;;13.60;77.70;;;;;;5033611;28;20141;-72
2022/11/09 10:10:22;;;;;;;11.27;2.38;;;13.60;77.90;;;;;;5060759;28;20048;-72
2022/11/09 10:13:00;;;;;;;8.30;2.28;;;13.60;78.00;;;;;;5039037;28;20054;-72
2022/11/09 10:15:31;;;;;;;10.30;2.70;;;13.70;77.20;;;;;;5026562;28;20048;-72
2022/11/09 10:18:15;;;;;;;10.23;2.13;;;13.70;77.30;;;;;;5058903;28;20372;-72
2022/11/09 10:20:54;;;;;;;13.13;2.50;;;13.70;77.40;;;;;;5026104;28;20077;-72
2022/11/09 10:23:40;;;;;;;8.40;2.15;;;13.70;77.20;;;;;;5026859;28;20531;-72
2022/11/09 10:26:17;;;;;;;10.60;2.50;;;13.70;77.10;;;;;;5028819;28;20054;-72
2022/11/09 10:28:47;;;;;;;6.23;2.00;;;13.70;76.90;;;;;;5029181;28;20436;-72
2022/11/09 10:31:17;;;;;;;9.70;2.33;;;13.70;77.20;;;;;;5027892;28;20261;-72
2022/11/09 10:33:48;;;;;;;10.35;2.20;;;13.70;77.50;;;;;;5031168;28;20128;-72
2022/11/09 10:36:24;;;;;;;8.55;2.28;;;13.70;77.30;;;;;;5029217;28;20057;-72
2022/11/09 10:38:54;;;;;;;11.65;2.53;;;13.80;77.20;;;;;;5027575;28;20516;-72
2022/11/09 10:41:43;;;;;;;10.53;2.57;;;13.90;76.70;;;;;;5057945;28;20057;-72
2022/11/09 10:44:28;;;;;;;7.97;2.38;;;13.90;76.70;;;;;;5027236;28;20265;-72
2022/11/09 10:47:17;;;;;;;13.05;2.63;;;13.90;76.30;;;;;;5032751;28;20054;-73
2022/11/09 10:50:17;;;;;;;10.38;2.80;;;13.90;76.40;;;;;;5037641;28;20054;-73
2022/11/09 10:53:10;;;;;;;8.82;2.50;;;13.90;75.80;;;;;;5031927;28;20057;-73
2022/11/09 10:55:57;;;;;;;11.77;2.70;;;13.90;75.90;;;;;;5027671;28;20958;-72
2022/11/09 10:58:48;;;;;;;11.40;2.40;;;13.90;76.00;;;;;;5027651;28;20623;-73
2022/11/09 11:01:37;;;;;;;13.73;2.75;;;13.90;75.80;;;;;;5034801;28;20122;-72
2022/11/09 11:04:25;;;;;;;9.10;2.50;;;13.90;75.80;;;;;;5031417;28;20134;-73
2022/11/09 11:07:19;;;;;;;10.30;2.75;;;13.90;75.80;;;;;;5058325;28;20514;-72
2022/11/09 11:10:17;;;;;;;11.40;2.67;;;14.00;75.70;;;;;;5028435;28;20567;-73
2022/11/09 11:13:23;;;;;;;12.20;3.00;;;14.00;74.90;;;;;;5061233;28;20273;-72
2022/11/09 11:16:25;;;;;;;9.50;1.98;;;14.00;74.90;;;;;;5049267;28;20084;-73
2022/11/09 11:19:32;;;;;;;8.98;2.55;;;14.10;75.00;;;;;;5036545;28;20061;-72
2022/11/09 11:22:22;;;;;;;11.45;2.55;;;14.00;75.70;;;;;;5032522;28;20133;-72
2022/11/09 11:25:19;;;;;;;10.57;2.20;;;14.10;75.50;;;;;;5026313;28;20050;-73
2022/11/09 11:28:17;;;;;;;8.32;2.10;;;14.10;75.00;;;;;;5028375;28;20288;-73
2022/11/09 11:31:03;;;;;;;10.57;2.40;;;14.10;75.00;;;;;;5009619;28;20077;-72
2022/11/09 11:33:49;;;;;;;12.52;2.20;;;14.20;74.80;;;;;;5056503;28;20048;-73
2022/11/09 11:36:48;;;;;;;7.20;1.92;;;14.20;74.60;;;;;;5024090;28;20045;-72
2022/11/09 11:39:46;;;;;;;8.03;2.10;;;14.20;74.40;;;;;;5040838;28;20057;-73
2022/11/09 11:42:57;;;;;;;9.23;2.10;;;14.20;74.10;;;;;;5061771;28;20739;-72
2022/11/09 11:45:51;;;;;;;8.10;2.17;;;14.20;73.20;;;;;;5031761;28;20076;-72
2022/11/09 11:49:15;;;;;;;10.25;2.17;;;14.20;73.60;;;;;;5036675;28;20042;-72
2022/11/09 11:52:11;;;;;;;10.75;2.38;;;14.10;73.80;;;;;;5027776;28;20527;-71
2022/11/09 11:55:17;;;;;;;6.97;1.67;;;14.10;74.10;;;;;;5025698;28;20136;-72
2022/11/09 11:58:22;;;;;;;10.10;2.08;;;14.10;74.40;;;;;;5029038;28;20270;-73
2022/11/09 12:01:22;;;;;;;7.65;1.98;;;14.00;74.70;;;;;;5058561;28;20048;-72
2022/11/09 12:04:34;;;;;;;8.77;1.80;;;14.00;75.00;;;;;;5028406;28;20045;-73
2022/11/09 12:07:31;;;;;;;9.80;1.98;;;14.00;75.10;;;;;;5028434;28;20562;-74
2022/11/09 12:10:30;;;;;;;10.23;1.53;;;14.10;74.80;;;;;;5061430;28;20049;-74
2022/11/09 12:13:37;;;;;;;8.50;2.00;;;14.10;74.80;;;;;;5030310;28;20284;-73
2022/11/09 12:16:31;;;;;;;9.15;2.10;;;14.10;74.60;;;;;;5027187;28;20054;-73
2022/11/09 12:19:46;;;;;;;9.45;2.10;;;14.00;74.80;;;;;;5061652;28;20681;-73
2022/11/09 12:22:40;;;;;;;6.72;1.83;;;14.10;74.50;;;;;;5029689;28;20054;-73
2022/11/09 12:25:35;;;;;;;9.67;1.83;;;14.10;74.40;;;;;;5030789;28;20105;-75
2022/11/09 12:28:39;;;;;;;10.52;2.33;;;14.10;74.50;;;;;;5040665;28;20285;-72
2022/11/09 12:31:32;;;;;;;8.85;2.05;;;14.10;74.30;;;;;;5026113;28;20053;-72
2022/11/09 12:34:25;;;;;;;8.63;1.75;;;14.00;74.00;;;;;;5026333;28;20049;-72
2022/11/09 12:37:14;;;;;;;7.88;1.60;;;14.00;74.20;;;;;;5029725;28;20496;-72
2022/11/09 12:40:10;;;;;;;9.47;2.40;;;14.00;73.90;;;;;;5028557;28;20053;-71
2022/11/09 12:43:03;;;;;;;8.82;2.10;;;14.00;73.90;;;;;;5030101;28;20273;-72
2022/11/09 12:45:51;;;;;;;9.10;2.20;;;14.00;73.80;;;;;;5027234;28;20061;-72
2022/11/09 12:48:37;;;;;;;8.60;2.30;;;14.00;73.60;;;;;;5011418;28;20053;-72
2022/11/09 12:51:23;;;;;;;7.35;2.10;;;14.00;73.20;;;;;;5010695;28;20046;-72
2022/11/09 12:54:10;;;;;;;10.53;2.57;;;14.00;73.30;;;;;;5013615;28;20046;-72
2022/11/09 12:56:59;;;;;;;9.70;2.90;;;14.00;72.70;;;;;;5012545;28;20276;-72
2022/11/09 12:59:52;;;;;;;9.82;2.20;;;14.00;72.50;;;;;;5029703;28;20065;-72
2022/11/09 13:02:43;;;;;;;7.72;2.17;;;14.00;72.50;;;;;;5031049;28;20108;-72
2022/11/09 13:05:31;;;;;;;6.57;1.88;;;14.00;72.20;;;;;;5029571;28;20574;-72
2022/11/09 13:08:20;;;;;;;8.03;2.13;;;14.00;71.90;;;;;;5030366;28;20049;-72
2022/11/09 13:11:18;;;;;;;8.93;1.90;;;14.00;71.70;;;;;;5030868;28;20272;-72
2022/11/09 13:14:35;;;;;;;7.63;1.73;;;14.00;71.80;;;;;;5030578;28;20416;-72
2022/11/09 13:17:54;;;;;;;5.80;1.52;;;14.00;71.50;;;;;;5028506;28;20049;-72
2022/11/09 13:20:47;;;;;;;6.10;1.70;;;14.00;70.70;;;;;;5028085;28;20651;-72